Weather at Montreal / Mascouche Airport [CLOSED]

Public forecast

Using degrees Celsius for public forecast. Weather courtesy of forecast.io.

Closest aviation weather report (METAR) to Montreal / Mascouche Airport

Closest report is Montréal / Saint-Hubert Airport, 14.3 nm (26.4 km) SSE.

2024/05/22 09:00 (retrieved 27 minutes ago)

CYHU 220900Z AUTO 14002KT 9SM FEW066 SCT078 SCT095 17/17 A2983 RMK SLP103 DENSITY ALT 500FT

Closest aviation forecast (TAF) to Montreal / Mascouche Airport

Closest forecast is Montréal / Saint-Hubert Airport, 14.3 nm (26.4 km) SSE.

2024/05/22 06:42 (retrieved 3 hours ago)

TAF CYHU 220540Z 2206/2306 13007KT P6SM OVC080 TEMPO 2206/2209 5SM BR FM220900 VRB03KT P6SM SCT010 SCT030 TEMPO 2209/2214 5SM BR BKN010 BKN030 FM221400 22005KT P6SM BKN020 BECMG 2214/2216 SKC BECMG 2219/2221 BKN060 FM222200 25007KT P6SM -SHRA BKN040 PROB30 2222/2301 VRB15G30KT 2SM TSRA BR BKN020 OVC050CB FM230100 16008KT 4SM -SHRA BKN030 PROB30 2301/2304 VRB20G35KT 1SM +TSRA BKN020 OVC040CB FM230400 24012G22KT P6SM BKN050 PROB30 2304/2306 4SM TSRA BR BKN030CB RMK FCST BASED ON AUTO OBS NXT FCST BY 221200Z